createdAt,value
2018-11-21T00:00:41.143Z,4.84
2018-11-21T00:01:40.914Z,4.83
2018-11-21T00:02:40.989Z,4.83
2018-11-21T00:03:41.164Z,4.84
2018-11-21T00:04:40.855Z,4.82
2018-11-21T00:05:40.827Z,4.83
2018-11-21T00:06:40.813Z,4.83
2018-11-21T00:07:40.868Z,4.83
2018-11-21T00:08:41.141Z,4.82
2018-11-21T00:09:40.863Z,4.82
2018-11-21T00:10:40.807Z,4.82
2018-11-21T00:11:40.851Z,4.82
2018-11-21T00:12:40.806Z,4.82
2018-11-21T00:13:40.850Z,4.82
2018-11-21T00:14:40.904Z,4.82
2018-11-21T00:15:40.979Z,4.81
2018-11-21T00:16:40.971Z,4.81
2018-11-21T00:17:40.937Z,4.81
2018-11-21T00:18:40.809Z,4.82
2018-11-21T00:19:41.000Z,4.82
2018-11-21T00:20:41.237Z,4.8
2018-11-21T00:21:41.075Z,4.81
2018-11-21T00:22:41.191Z,4.8
2018-11-21T00:23:41.081Z,4.81
2018-11-21T00:24:40.830Z,4.8
2018-11-21T00:25:41.143Z,4.8
2018-11-21T00:26:41.282Z,4.8
2018-11-21T00:27:40.861Z,4.79
2018-11-21T00:28:40.855Z,4.79
2018-11-21T00:29:40.883Z,4.79
2018-11-21T00:30:40.932Z,4.8
2018-11-21T00:31:41.061Z,4.79
2018-11-21T00:32:41.107Z,4.79
2018-11-21T00:33:40.837Z,4.8
2018-11-21T00:34:40.857Z,4.78
2018-11-21T00:35:40.836Z,4.78
2018-11-21T00:36:41.148Z,4.78
2018-11-21T00:37:40.850Z,4.79
2018-11-21T00:38:40.802Z,4.78
2018-11-21T00:39:41.012Z,4.78
2018-11-21T00:40:41.133Z,4.78
2018-11-21T00:41:40.879Z,4.78
2018-11-21T00:42:46.796Z,4.77
2018-11-21T00:43:40.860Z,4.78
2018-11-21T00:44:40.943Z,4.78
2018-11-21T00:45:40.812Z,4.77
2018-11-21T00:46:41.098Z,4.77
2018-11-21T00:47:40.957Z,4.77
2018-11-21T00:48:40.826Z,4.77
2018-11-21T00:49:41.009Z,4.77
2018-11-21T00:50:40.936Z,4.77
2018-11-21T00:51:40.919Z,4.76
2018-11-21T00:52:40.827Z,4.76
2018-11-21T00:53:40.758Z,4.75
2018-11-21T00:54:40.902Z,4.76
2018-11-21T00:55:40.771Z,4.78
2018-11-21T00:56:40.972Z,4.77
2018-11-21T00:57:40.939Z,4.76
2018-11-21T00:58:40.912Z,4.75
2018-11-21T00:59:40.909Z,4.75
2018-11-21T01:00:40.844Z,4.75
2018-11-21T01:01:40.898Z,4.76
2018-11-21T01:02:40.787Z,4.75
2018-11-21T01:03:40.831Z,4.75
2018-11-21T01:04:40.843Z,4.76
2018-11-21T01:05:40.913Z,4.75
2018-11-21T01:06:40.918Z,4.75
2018-11-21T01:07:40.780Z,4.74
2018-11-21T01:08:40.866Z,4.74
2018-11-21T01:09:40.816Z,4.74
2018-11-21T01:10:40.781Z,4.74
2018-11-21T01:11:40.735Z,4.75
2018-11-21T01:12:41.079Z,4.74
2018-11-21T01:13:40.787Z,4.74
2018-11-21T01:14:40.811Z,4.75
2018-11-21T01:15:40.883Z,4.74
2018-11-21T01:16:41.578Z,4.73
2018-11-21T01:17:40.724Z,4.73
2018-11-21T01:18:40.778Z,4.74
2018-11-21T01:19:40.764Z,4.74
2018-11-21T01:20:41.082Z,4.73
2018-11-21T01:21:40.785Z,4.73
2018-11-21T01:22:41.022Z,4.73
2018-11-21T01:23:40.872Z,4.72
2018-11-21T01:24:40.862Z,4.72
2018-11-21T01:25:40.885Z,4.73
2018-11-21T01:26:40.894Z,4.73
2018-11-21T01:27:40.824Z,4.73
2018-11-21T01:28:40.786Z,4.73
2018-11-21T01:29:40.714Z,4.72
2018-11-21T01:30:40.717Z,4.73
2018-11-21T01:31:40.775Z,4.72
2018-11-21T01:32:40.800Z,4.72
2018-11-21T01:33:40.729Z,4.72
2018-11-21T01:34:40.743Z,4.72
2018-11-21T01:35:40.716Z,4.72
2018-11-21T01:36:40.990Z,4.72
2018-11-21T01:37:40.756Z,4.72
2018-11-21T01:38:40.716Z,4.7
2018-11-21T01:39:40.776Z,4.7
2018-11-21T01:40:40.857Z,4.7
2018-11-21T01:41:40.747Z,4.71
2018-11-21T01:42:41.833Z,4.7
2018-11-21T01:43:40.775Z,4.71
2018-11-21T01:44:40.853Z,4.72
2018-11-21T01:45:40.808Z,4.69
2018-11-21T01:46:41.002Z,4.71
2018-11-21T01:47:40.772Z,4.7
2018-11-21T01:48:40.661Z,4.71
2018-11-21T01:49:40.721Z,4.7
2018-11-21T01:50:40.758Z,4.7
2018-11-21T01:51:40.717Z,4.69
2018-11-21T01:52:40.871Z,4.71
2018-11-21T01:53:40.727Z,4.7
2018-11-21T01:54:40.694Z,4.71
2018-11-21T01:55:40.913Z,4.7
2018-11-21T01:56:40.775Z,4.7
2018-11-21T01:57:40.843Z,4.69
2018-11-21T01:58:40.662Z,4.7
2018-11-21T01:59:40.921Z,4.71
2018-11-21T02:00:40.798Z,4.69
2018-11-21T02:01:41.520Z,4.68
2018-11-21T02:02:40.840Z,4.68
2018-11-21T02:03:40.934Z,4.7
2018-11-21T02:04:41.192Z,4.68
2018-11-21T02:05:40.860Z,4.7
2018-11-21T02:06:40.718Z,4.69
2018-11-21T02:07:40.949Z,4.69
2018-11-21T02:08:40.891Z,4.68
2018-11-21T02:09:40.688Z,4.69
2018-11-21T02:10:40.803Z,4.7
2018-11-21T02:11:40.963Z,4.68
2018-11-21T02:12:40.709Z,4.68
2018-11-21T02:13:40.745Z,4.68
2018-11-21T02:14:41.513Z,4.68
2018-11-21T02:15:40.850Z,4.67
2018-11-21T02:16:40.861Z,4.67
2018-11-21T02:17:40.766Z,4.67
2018-11-21T02:18:40.770Z,4.68
2018-11-21T02:19:40.777Z,4.67
2018-11-21T02:20:40.918Z,4.67
2018-11-21T02:21:41.095Z,4.67
2018-11-21T02:22:40.695Z,4.69
2018-11-21T02:23:40.702Z,4.67
2018-11-21T02:24:41.087Z,4.68
2018-11-21T02:25:40.641Z,4.68
2018-11-21T02:26:41.015Z,4.66
2018-11-21T02:27:40.695Z,4.67
2018-11-21T02:28:40.726Z,4.67
2018-11-21T02:29:40.846Z,4.67
2018-11-21T02:30:40.751Z,4.66
2018-11-21T02:31:40.758Z,4.66
2018-11-21T02:32:40.906Z,4.67
2018-11-21T02:33:40.683Z,4.66
2018-11-21T02:34:40.653Z,4.67
2018-11-21T02:35:40.666Z,4.66
2018-11-21T02:36:40.707Z,4.66
2018-11-21T02:37:40.804Z,4.66
2018-11-21T02:38:40.783Z,4.67
2018-11-21T02:39:40.680Z,4.66
2018-11-21T02:40:40.904Z,4.67
2018-11-21T02:41:40.904Z,4.67
2018-11-21T02:42:40.721Z,4.66
2018-11-21T02:43:40.833Z,4.66
2018-11-21T02:44:40.789Z,4.66
2018-11-21T02:45:40.813Z,4.66
2018-11-21T02:46:40.709Z,4.65
2018-11-21T02:47:40.704Z,4.66
2018-11-21T02:48:40.660Z,4.66
2018-11-21T02:49:40.713Z,4.65
2018-11-21T02:50:40.619Z,4.66
2018-11-21T02:51:41.114Z,4.65
2018-11-21T02:52:40.660Z,4.65
2018-11-21T02:53:41.003Z,4.65
2018-11-21T02:54:40.905Z,4.65
2018-11-21T02:55:40.710Z,4.65
2018-11-21T02:56:40.634Z,4.65
2018-11-21T02:57:40.602Z,4.65
2018-11-21T02:58:40.661Z,4.64
2018-11-21T02:59:40.618Z,4.64
2018-11-21T03:00:40.815Z,4.64
2018-11-21T03:01:40.698Z,4.63
2018-11-21T03:02:40.724Z,4.65
2018-11-21T03:03:40.784Z,4.64
2018-11-21T03:04:40.668Z,4.64
2018-11-21T03:05:40.916Z,4.65
2018-11-21T03:06:40.682Z,4.64
2018-11-21T03:07:40.722Z,4.65
2018-11-21T03:08:40.650Z,4.64
2018-11-21T03:09:40.589Z,4.64
2018-11-21T03:10:40.663Z,4.64
2018-11-21T03:11:40.634Z,4.64
2018-11-21T03:12:40.622Z,4.64
2018-11-21T03:13:40.680Z,4.65
2018-11-21T03:14:40.566Z,4.64
2018-11-21T03:15:40.610Z,4.64
2018-11-21T03:16:40.944Z,4.64
2018-11-21T03:17:40.624Z,4.65
2018-11-21T03:18:40.602Z,4.64
2018-11-21T03:19:40.606Z,4.64
2018-11-21T03:20:40.647Z,4.64
2018-11-21T03:21:40.676Z,4.64
2018-11-21T03:22:41.061Z,4.63
2018-11-21T03:23:40.576Z,4.62
2018-11-21T03:24:40.604Z,4.63
2018-11-21T03:25:40.650Z,4.64
2018-11-21T03:26:40.560Z,4.64
2018-11-21T03:27:40.592Z,4.63
2018-11-21T03:28:40.686Z,4.64
2018-11-21T03:29:40.588Z,4.63
2018-11-21T03:30:40.666Z,4.62
2018-11-21T03:31:40.613Z,4.63
2018-11-21T03:32:40.700Z,4.62
2018-11-21T03:33:40.596Z,4.64
2018-11-21T03:34:40.567Z,4.65
2018-11-21T03:35:40.643Z,4.63
2018-11-21T03:36:40.578Z,4.63
2018-11-21T03:37:40.685Z,4.62
2018-11-21T03:38:40.539Z,4.63
2018-11-21T03:39:41.027Z,4.61
2018-11-21T03:40:40.810Z,4.62
2018-11-21T03:41:40.541Z,4.61
2018-11-21T03:42:40.968Z,4.62
2018-11-21T03:43:40.764Z,4.62
2018-11-21T03:44:40.621Z,4.63
2018-11-21T03:45:40.709Z,4.61
2018-11-21T03:46:40.560Z,4.61
2018-11-21T03:47:40.840Z,4.61
2018-11-21T03:48:40.652Z,4.61
2018-11-21T03:49:40.777Z,4.61
2018-11-21T03:50:40.548Z,4.61
2018-11-21T03:51:40.652Z,4.6
2018-11-21T03:52:40.532Z,4.62
2018-11-21T03:53:40.523Z,4.61
2018-11-21T03:54:40.586Z,4.6
2018-11-21T03:55:40.794Z,4.6
2018-11-21T03:56:40.934Z,4.61
2018-11-21T03:57:40.655Z,4.61
2018-11-21T03:58:40.528Z,4.59
2018-11-21T03:59:40.480Z,4.6
2018-11-21T04:00:40.623Z,4.6
2018-11-21T04:01:40.527Z,4.61
2018-11-21T04:02:40.589Z,4.59
2018-11-21T04:03:40.512Z,4.59
2018-11-21T04:04:40.653Z,4.6
2018-11-21T04:05:40.644Z,4.6
2018-11-21T04:06:40.761Z,4.61
2018-11-21T04:07:40.800Z,4.6
2018-11-21T04:08:43.003Z,4.6
2018-11-21T04:09:40.719Z,4.6
2018-11-21T04:10:40.594Z,4.6
2018-11-21T04:11:40.667Z,4.59
2018-11-21T04:12:40.749Z,4.59
2018-11-21T04:13:40.885Z,4.59
2018-11-21T04:14:40.519Z,4.6
2018-11-21T04:15:40.545Z,4.59
2018-11-21T04:16:40.595Z,4.59
2018-11-21T04:17:40.523Z,4.59
2018-11-21T04:18:40.653Z,4.6
2018-11-21T04:19:40.700Z,4.59
2018-11-21T04:20:40.525Z,4.59
2018-11-21T04:21:40.533Z,4.59
2018-11-21T04:22:40.547Z,4.59
2018-11-21T04:23:40.634Z,4.59
2018-11-21T04:24:40.576Z,4.58
2018-11-21T04:25:40.567Z,4.58
2018-11-21T04:26:40.519Z,4.59
2018-11-21T04:27:40.759Z,4.59
2018-11-21T04:28:40.627Z,4.59
2018-11-21T04:29:40.521Z,4.58
2018-11-21T04:30:40.532Z,4.59
2018-11-21T04:31:40.892Z,4.58
2018-11-21T04:32:40.571Z,4.59
2018-11-21T04:33:40.677Z,4.58
2018-11-21T04:34:40.663Z,4.58
2018-11-21T04:35:40.619Z,4.57
2018-11-21T04:36:40.771Z,4.58
2018-11-21T04:37:40.689Z,4.58
2018-11-21T04:38:40.546Z,4.58
2018-11-21T04:39:40.849Z,4.58
2018-11-21T04:40:40.680Z,4.57
2018-11-21T04:41:40.584Z,4.57
2018-11-21T04:42:40.731Z,4.57
2018-11-21T04:43:40.496Z,4.59
2018-11-21T04:44:40.552Z,4.58
2018-11-21T04:45:40.894Z,4.58
2018-11-21T04:46:40.460Z,4.57
2018-11-21T04:47:40.475Z,4.58
2018-11-21T04:48:40.549Z,4.57
2018-11-21T04:49:40.461Z,4.57
2018-11-21T04:50:40.548Z,4.56
2018-11-21T04:51:40.499Z,4.57
2018-11-21T04:52:40.524Z,4.56
2018-11-21T04:53:40.539Z,4.56
2018-11-21T04:54:40.486Z,4.56
2018-11-21T04:55:40.577Z,4.55
2018-11-21T04:56:40.471Z,4.56
2018-11-21T04:57:40.482Z,4.56
2018-11-21T04:58:40.486Z,4.57
2018-11-21T04:59:40.434Z,4.56
2018-11-21T05:00:40.663Z,4.55
2018-11-21T05:01:40.448Z,4.56
2018-11-21T05:02:40.445Z,4.57
2018-11-21T05:03:40.461Z,4.56
2018-11-21T05:04:40.434Z,4.55
2018-11-21T05:05:40.834Z,4.57
2018-11-21T05:06:40.465Z,4.55
2018-11-21T05:07:40.427Z,4.55
2018-11-21T05:08:40.497Z,4.56
2018-11-21T05:09:40.429Z,4.55
2018-11-21T05:10:41.289Z,4.57
2018-11-21T05:11:40.521Z,4.55
2018-11-21T05:12:40.624Z,4.56
2018-11-21T05:13:40.446Z,4.55
2018-11-21T05:14:40.528Z,4.56
2018-11-21T05:15:40.468Z,4.55
2018-11-21T05:16:40.389Z,4.55
2018-11-21T05:17:41.290Z,4.55
2018-11-21T05:18:40.549Z,4.58
2018-11-21T05:19:40.444Z,4.55
2018-11-21T05:20:40.742Z,4.54
2018-11-21T05:21:40.622Z,4.55
2018-11-21T05:22:40.663Z,4.54
2018-11-21T05:23:40.443Z,4.54
2018-11-21T05:24:40.532Z,4.55
2018-11-21T05:25:40.492Z,4.55
2018-11-21T05:26:40.513Z,4.55
2018-11-21T05:27:40.428Z,4.56
2018-11-21T05:28:40.589Z,4.55
2018-11-21T05:29:40.647Z,4.54
2018-11-21T05:30:40.607Z,4.56
2018-11-21T05:31:40.648Z,4.55
2018-11-21T05:32:40.767Z,4.55
2018-11-21T05:33:40.610Z,4.55
2018-11-21T05:34:40.509Z,4.56
2018-11-21T05:35:40.467Z,4.56
2018-11-21T05:36:40.544Z,4.55
2018-11-21T05:37:40.541Z,4.55
2018-11-21T05:38:40.490Z,4.54
2018-11-21T05:39:40.473Z,4.54
2018-11-21T05:40:40.580Z,4.54
2018-11-21T05:41:40.427Z,4.56
2018-11-21T05:42:40.430Z,4.54
2018-11-21T05:43:40.444Z,4.56
2018-11-21T05:44:40.403Z,4.55
2018-11-21T05:45:40.531Z,4.56
2018-11-21T05:46:40.506Z,4.55
2018-11-21T05:47:40.579Z,4.55
2018-11-21T05:48:40.452Z,4.54
2018-11-21T05:49:40.370Z,4.54
2018-11-21T05:50:40.710Z,4.55
2018-11-21T05:51:40.536Z,4.54
2018-11-21T05:52:41.648Z,4.55
2018-11-21T05:53:40.597Z,4.54
2018-11-21T05:54:40.544Z,4.54
2018-11-21T05:55:40.552Z,4.56
2018-11-21T05:56:40.406Z,4.54
2018-11-21T05:57:40.752Z,4.54
2018-11-21T05:58:40.431Z,4.55
2018-11-21T05:59:40.510Z,4.54
2018-11-21T06:00:40.454Z,4.55
2018-11-21T06:01:40.434Z,4.54
2018-11-21T06:02:40.552Z,4.53
2018-11-21T06:03:40.418Z,4.55
2018-11-21T06:04:40.440Z,4.55
2018-11-21T06:05:40.399Z,4.55
2018-11-21T06:06:40.303Z,4.57
2018-11-21T06:07:40.518Z,4.57
2018-11-21T06:08:40.344Z,4.58
2018-11-21T06:09:40.381Z,4.56
2018-11-21T06:10:40.429Z,4.58
2018-11-21T06:11:40.635Z,4.57
2018-11-21T06:12:40.380Z,4.59
2018-11-21T06:13:40.322Z,4.57
2018-11-21T06:14:40.388Z,4.56
2018-11-21T06:15:40.313Z,4.59
2018-11-21T06:16:40.529Z,4.58
2018-11-21T06:17:40.371Z,4.56
2018-11-21T06:18:40.616Z,4.59
2018-11-21T06:19:40.375Z,4.58
2018-11-21T06:20:40.609Z,4.61
2018-11-21T06:21:40.410Z,4.6
2018-11-21T06:22:40.299Z,4.58
2018-11-21T06:23:40.580Z,4.6
2018-11-21T06:24:40.360Z,4.57
2018-11-21T06:25:40.581Z,4.57
2018-11-21T06:26:40.332Z,4.56
2018-11-21T06:27:40.313Z,4.55
2018-11-21T06:28:40.877Z,4.56
2018-11-21T06:29:40.302Z,4.56
2018-11-21T06:30:40.289Z,4.57
2018-11-21T06:31:40.354Z,4.55
2018-11-21T06:32:40.349Z,4.57
2018-11-21T06:33:40.338Z,4.55
2018-11-21T06:34:40.310Z,4.55
2018-11-21T06:35:40.338Z,4.57
2018-11-21T06:36:40.676Z,4.55
2018-11-21T06:37:40.370Z,4.54
2018-11-21T06:38:40.308Z,4.55
2018-11-21T06:39:40.746Z,4.54
2018-11-21T06:40:40.305Z,4.54
2018-11-21T06:41:40.336Z,4.55
2018-11-21T06:42:40.296Z,4.54
2018-11-21T06:43:40.298Z,4.54
2018-11-21T06:44:40.548Z,4.53
2018-11-21T06:45:40.520Z,4.53
2018-11-21T06:46:40.379Z,4.53
2018-11-21T06:47:40.324Z,4.53
2018-11-21T06:48:40.498Z,4.53
2018-11-21T06:49:40.620Z,4.53
2018-11-21T06:50:40.432Z,4.52
2018-11-21T06:51:40.896Z,4.53
2018-11-21T06:52:40.261Z,4.52
2018-11-21T06:53:40.314Z,4.52
2018-11-21T06:54:40.354Z,4.51
2018-11-21T06:55:40.417Z,4.52
2018-11-21T06:56:40.526Z,4.53
2018-11-21T06:57:40.615Z,4.53
2018-11-21T06:58:40.455Z,4.52
2018-11-21T06:59:40.510Z,4.53
2018-11-21T07:00:40.293Z,4.51
2018-11-21T07:01:40.367Z,4.51
2018-11-21T07:02:40.402Z,4.52
2018-11-21T07:03:40.647Z,4.52
2018-11-21T07:04:40.787Z,4.55
2018-11-21T07:05:40.456Z,4.52
2018-11-21T07:06:40.566Z,4.54
2018-11-21T07:07:40.479Z,4.56
2018-11-21T07:08:40.284Z,4.54
2018-11-21T07:09:40.613Z,4.53
2018-11-21T07:10:40.368Z,4.53
2018-11-21T07:11:40.218Z,4.52
2018-11-21T07:12:40.503Z,4.52
2018-11-21T07:13:40.383Z,4.53
2018-11-21T07:14:40.529Z,4.54
2018-11-21T07:15:40.281Z,4.52
2018-11-21T07:16:40.323Z,4.53
2018-11-21T07:17:40.369Z,4.53
2018-11-21T07:18:40.474Z,4.52
2018-11-21T07:19:40.285Z,4.52
2018-11-21T07:20:40.305Z,4.52
2018-11-21T07:21:40.565Z,4.54
2018-11-21T07:22:40.233Z,4.53
2018-11-21T07:23:40.293Z,4.53
2018-11-21T07:24:40.319Z,4.54
2018-11-21T07:25:40.465Z,4.54
2018-11-21T07:26:40.735Z,4.53
2018-11-21T07:27:40.534Z,4.56
2018-11-21T07:28:40.313Z,4.55
2018-11-21T07:29:40.436Z,4.54
2018-11-21T07:30:40.443Z,4.55
2018-11-21T07:31:40.735Z,4.56
2018-11-21T07:32:40.663Z,4.55
2018-11-21T07:33:46.571Z,4.57
2018-11-21T07:34:40.277Z,4.57
2018-11-21T07:35:40.284Z,4.56
2018-11-21T07:36:40.314Z,4.56
2018-11-21T07:37:40.264Z,4.57
2018-11-21T07:38:40.281Z,4.57
2018-11-21T07:39:40.328Z,4.58
2018-11-21T07:40:40.516Z,4.57
2018-11-21T07:41:40.285Z,4.56
2018-11-21T07:42:40.516Z,4.63
2018-11-21T07:43:41.130Z,4.58
2018-11-21T07:44:40.503Z,4.58
2018-11-21T07:45:40.423Z,4.59
2018-11-21T07:46:40.420Z,4.59
2018-11-21T07:47:40.314Z,4.6
2018-11-21T07:48:40.259Z,4.6
2018-11-21T07:49:41.086Z,4.6
2018-11-21T07:50:40.473Z,4.6
2018-11-21T07:51:40.312Z,4.61
2018-11-21T07:52:40.263Z,4.6
2018-11-21T07:53:40.251Z,4.6
2018-11-21T07:54:40.259Z,4.61
2018-11-21T07:55:40.558Z,4.62
2018-11-21T07:56:40.251Z,4.61
2018-11-21T07:57:40.399Z,4.64
2018-11-21T07:58:40.236Z,4.63
2018-11-21T07:59:40.248Z,4.63
2018-11-21T08:00:40.228Z,4.64
2018-11-21T08:01:40.470Z,4.63
2018-11-21T08:02:40.310Z,4.64
2018-11-21T08:03:40.456Z,4.64
2018-11-21T08:04:40.222Z,4.64
2018-11-21T08:05:44.712Z,4.64
2018-11-21T08:06:40.392Z,4.65
2018-11-21T08:07:40.485Z,4.65
2018-11-21T08:08:40.188Z,4.66
2018-11-21T08:09:40.249Z,4.64
2018-11-21T08:10:40.305Z,4.66
2018-11-21T08:11:40.319Z,4.67
2018-11-21T08:12:40.223Z,4.67
2018-11-21T08:13:40.235Z,4.67
2018-11-21T08:14:40.242Z,4.66
2018-11-21T08:15:40.173Z,4.67
2018-11-21T08:16:40.217Z,4.66
2018-11-21T08:17:40.560Z,4.68
2018-11-21T08:18:40.298Z,4.67
2018-11-21T08:19:40.265Z,4.66
2018-11-21T08:20:40.577Z,4.67
2018-11-21T08:21:40.176Z,4.68
2018-11-21T08:22:40.403Z,4.66
2018-11-21T08:23:40.221Z,4.67
2018-11-21T08:24:40.648Z,4.67
2018-11-21T08:25:40.179Z,4.68
2018-11-21T08:26:40.387Z,4.68
2018-11-21T08:27:40.473Z,4.69
2018-11-21T08:28:40.430Z,4.68
2018-11-21T08:29:40.844Z,4.68
2018-11-21T08:30:40.476Z,4.7
2018-11-21T08:31:40.393Z,4.7
2018-11-21T08:32:40.290Z,4.69
2018-11-21T08:33:40.257Z,4.7
2018-11-21T08:34:40.263Z,4.69
2018-11-21T08:35:40.387Z,4.69
2018-11-21T08:36:40.280Z,4.69
2018-11-21T08:37:40.335Z,4.69
2018-11-21T08:38:40.352Z,4.69
2018-11-21T08:39:40.517Z,4.7
2018-11-21T08:40:40.182Z,4.72
2018-11-21T08:41:40.628Z,4.71
2018-11-21T08:42:40.161Z,4.69
2018-11-21T08:43:40.488Z,4.71
2018-11-21T08:44:40.459Z,4.7
2018-11-21T08:45:40.248Z,4.7
2018-11-21T08:46:40.231Z,4.7
2018-11-21T08:47:40.348Z,4.7
2018-11-21T08:48:40.152Z,4.71
2018-11-21T08:49:40.121Z,4.71
2018-11-21T08:50:40.125Z,4.71
2018-11-21T08:51:40.371Z,4.71
2018-11-21T08:52:40.365Z,4.72
2018-11-21T08:53:40.178Z,4.7
2018-11-21T08:54:40.288Z,4.7
2018-11-21T08:55:40.388Z,4.69
2018-11-21T08:56:40.191Z,4.68
2018-11-21T08:57:40.553Z,4.68
2018-11-21T08:58:40.379Z,4.67
2018-11-21T08:59:40.330Z,4.68
2018-11-21T09:00:40.166Z,4.68
2018-11-21T09:01:40.552Z,4.68
2018-11-21T09:02:40.149Z,4.68
2018-11-21T09:03:40.091Z,4.67
2018-11-21T09:04:40.167Z,4.67
2018-11-21T09:05:40.215Z,4.68
2018-11-21T09:06:40.582Z,4.68
2018-11-21T09:07:40.089Z,4.68
2018-11-21T09:08:40.240Z,4.7
2018-11-21T09:09:40.167Z,4.7
2018-11-21T09:10:40.319Z,4.71
2018-11-21T09:11:40.220Z,4.72
2018-11-21T09:12:40.178Z,4.72
2018-11-21T09:13:40.182Z,4.72
2018-11-21T09:14:40.436Z,4.72
2018-11-21T09:15:40.443Z,4.72
2018-11-21T09:16:40.919Z,4.74
2018-11-21T09:17:40.144Z,4.74
2018-11-21T09:18:40.261Z,4.74
2018-11-21T09:19:40.164Z,4.73
2018-11-21T09:20:40.207Z,4.73
2018-11-21T09:21:40.419Z,4.73
2018-11-21T09:22:40.079Z,4.74
2018-11-21T09:23:40.236Z,4.74
2018-11-21T09:24:40.165Z,4.73
2018-11-21T09:25:40.181Z,4.74
2018-11-21T09:26:40.309Z,4.73
2018-11-21T09:27:40.067Z,4.74
2018-11-21T09:28:40.165Z,4.75
2018-11-21T09:29:40.171Z,4.74
2018-11-21T09:30:40.246Z,4.74
2018-11-21T09:31:40.060Z,4.74
2018-11-21T09:32:40.119Z,4.74
2018-11-21T09:33:40.446Z,4.77
2018-11-21T09:34:40.161Z,4.77
2018-11-21T09:35:40.094Z,4.76
2018-11-21T09:36:40.230Z,4.75
2018-11-21T09:37:40.135Z,4.77
2018-11-21T09:38:40.216Z,4.78
2018-11-21T09:39:40.145Z,4.77
2018-11-21T09:40:40.059Z,4.77
2018-11-21T09:41:40.124Z,4.78
2018-11-21T09:42:40.050Z,4.79
2018-11-21T09:43:40.084Z,4.79
2018-11-21T09:44:40.045Z,4.8
2018-11-21T09:45:40.114Z,4.79
2018-11-21T09:46:40.045Z,4.78
2018-11-21T09:47:40.070Z,4.78
2018-11-21T09:48:40.190Z,4.79
2018-11-21T09:49:40.134Z,4.77
2018-11-21T09:50:40.114Z,4.8
2018-11-21T09:51:40.035Z,4.79
2018-11-21T09:52:40.775Z,4.78
2018-11-21T09:53:40.041Z,4.79
2018-11-21T09:54:40.055Z,4.81
2018-11-21T09:55:40.789Z,4.8
2018-11-21T09:56:40.258Z,4.78
2018-11-21T09:57:40.131Z,4.79
2018-11-21T09:58:40.421Z,4.79
2018-11-21T09:59:40.261Z,4.79
2018-11-21T10:00:40.287Z,4.78
2018-11-21T10:01:40.158Z,4.79
2018-11-21T10:02:40.457Z,4.79
2018-11-21T10:03:40.283Z,4.79
2018-11-21T10:04:40.125Z,4.81
2018-11-21T10:05:40.157Z,4.81
2018-11-21T10:06:40.001Z,4.83
2018-11-21T10:07:40.288Z,4.82
2018-11-21T10:08:40.217Z,4.81
2018-11-21T10:09:40.062Z,4.81
2018-11-21T10:10:40.104Z,4.82
2018-11-21T10:11:40.105Z,4.81
2018-11-21T10:12:40.506Z,4.83
2018-11-21T10:13:40.162Z,4.81
2018-11-21T10:14:40.169Z,4.83
2018-11-21T10:15:40.321Z,4.83
2018-11-21T10:16:40.097Z,4.84
2018-11-21T10:17:40.115Z,4.84
2018-11-21T10:18:40.229Z,4.83
2018-11-21T10:19:40.075Z,4.85
2018-11-21T10:20:40.228Z,4.84
2018-11-21T10:21:40.006Z,4.81
2018-11-21T10:22:40.096Z,4.81
2018-11-21T10:23:40.410Z,4.81
2018-11-21T10:24:39.997Z,4.82
2018-11-21T10:25:40.109Z,4.82
2018-11-21T10:26:40.361Z,4.84
2018-11-21T10:27:40.626Z,4.82
2018-11-21T10:28:40.209Z,4.82
2018-11-21T10:29:40.155Z,4.82
2018-11-21T10:30:40.201Z,4.81
2018-11-21T10:31:40.169Z,4.81
2018-11-21T10:32:40.111Z,4.79
2018-11-21T10:33:40.015Z,4.8
2018-11-21T10:34:40.262Z,4.81
2018-11-21T10:35:40.038Z,4.82
2018-11-21T10:36:40.312Z,4.82
2018-11-21T10:37:40.068Z,4.82
2018-11-21T10:38:40.298Z,4.83
2018-11-21T10:39:40.085Z,4.83
2018-11-21T10:40:39.995Z,4.82
2018-11-21T10:41:39.971Z,4.81
2018-11-21T10:42:40.011Z,4.81
2018-11-21T10:43:40.812Z,4.81
2018-11-21T10:44:39.957Z,4.81
2018-11-21T10:45:40.235Z,4.82
2018-11-21T10:46:40.132Z,4.83
2018-11-21T10:47:40.150Z,4.83
2018-11-21T10:48:40.078Z,4.82
2018-11-21T10:49:40.066Z,4.82
2018-11-21T10:50:40.221Z,4.83
2018-11-21T10:51:40.114Z,4.82
2018-11-21T10:52:40.180Z,4.83
2018-11-21T10:53:40.129Z,4.83
2018-11-21T10:54:40.223Z,4.83
2018-11-21T10:55:42.492Z,4.84
2018-11-21T10:56:40.092Z,4.83
2018-11-21T10:57:40.001Z,4.83
2018-11-21T10:58:39.958Z,4.83
2018-11-21T10:59:40.111Z,4.82
2018-11-21T11:00:40.116Z,4.82
2018-11-21T11:01:40.088Z,4.84
2018-11-21T11:02:40.151Z,4.84
2018-11-21T11:03:39.954Z,4.83
2018-11-21T11:04:39.939Z,4.83
2018-11-21T11:05:40.132Z,4.84
2018-11-21T11:06:40.326Z,4.85
2018-11-21T11:07:40.094Z,4.84
2018-11-21T11:08:40.092Z,4.84
2018-11-21T11:09:39.921Z,4.86
2018-11-21T11:10:39.983Z,4.88
2018-11-21T11:11:39.946Z,4.93
2018-11-21T11:12:40.226Z,4.85
2018-11-21T11:13:39.944Z,4.85
2018-11-21T11:14:39.946Z,4.84
2018-11-21T11:15:39.946Z,4.86
2018-11-21T11:16:39.934Z,4.89
2018-11-21T11:17:40.147Z,4.91
2018-11-21T11:18:39.933Z,4.9
2018-11-21T11:19:40.020Z,4.89
2018-11-21T11:20:39.927Z,4.88
2018-11-21T11:21:39.938Z,4.88
2018-11-21T11:22:39.967Z,4.88
2018-11-21T11:23:39.968Z,4.88
2018-11-21T11:24:39.973Z,4.87
2018-11-21T11:25:39.927Z,4.86
2018-11-21T11:26:40.122Z,4.84
2018-11-21T11:27:40.097Z,4.84
2018-11-21T11:28:40.087Z,4.85
2018-11-21T11:29:39.939Z,4.84
2018-11-21T11:30:40.032Z,4.84
2018-11-21T11:31:39.969Z,4.86
2018-11-21T11:32:40.198Z,4.86
2018-11-21T11:33:40.179Z,4.86
2018-11-21T11:34:40.407Z,4.87
2018-11-21T11:35:40.226Z,4.85
2018-11-21T11:36:40.126Z,4.84
2018-11-21T11:37:40.141Z,4.85
2018-11-21T11:38:39.951Z,4.85
2018-11-21T11:39:40.052Z,4.84
2018-11-21T11:40:40.087Z,4.86
2018-11-21T11:41:40.109Z,4.85
2018-11-21T11:42:40.102Z,4.85
2018-11-21T11:43:40.179Z,4.84
2018-11-21T11:44:40.092Z,4.85
2018-11-21T11:45:39.941Z,4.86
2018-11-21T11:46:39.963Z,4.86
2018-11-21T11:47:39.901Z,4.87
2018-11-21T11:48:40.182Z,4.88
2018-11-21T11:49:39.847Z,4.86
2018-11-21T11:50:40.185Z,4.87
2018-11-21T11:51:39.924Z,4.87
2018-11-21T11:52:39.936Z,4.85
2018-11-21T11:53:40.168Z,4.86
2018-11-21T11:54:39.931Z,4.87
2018-11-21T11:55:40.043Z,4.87
2018-11-21T11:56:40.726Z,4.88
2018-11-21T11:57:40.124Z,4.88
2018-11-21T11:58:40.212Z,4.88
2018-11-21T11:59:39.965Z,4.88
2018-11-21T12:00:40.080Z,4.88
2018-11-21T12:01:39.949Z,4.9
2018-11-21T12:02:39.883Z,4.89
2018-11-21T12:03:39.862Z,4.88
2018-11-21T12:04:39.862Z,4.87
2018-11-21T12:05:39.904Z,4.87
2018-11-21T12:06:40.058Z,4.88
2018-11-21T12:07:39.820Z,4.87
2018-11-21T12:08:39.856Z,4.89
2018-11-21T12:09:39.869Z,4.88
2018-11-21T12:10:39.943Z,4.89
2018-11-21T12:11:39.927Z,4.88
2018-11-21T12:12:40.467Z,4.87
2018-11-21T12:13:39.987Z,4.89
2018-11-21T12:14:39.871Z,4.9
2018-11-21T12:15:40.371Z,4.89
2018-11-21T12:16:40.220Z,4.91
2018-11-21T12:17:39.974Z,4.9
2018-11-21T12:18:39.912Z,4.92
2018-11-21T12:19:39.935Z,4.9
2018-11-21T12:20:39.976Z,4.91
2018-11-21T12:21:40.019Z,4.9
2018-11-21T12:22:40.093Z,4.92
2018-11-21T12:23:39.907Z,4.91
2018-11-21T12:24:39.864Z,4.91
2018-11-21T12:25:39.807Z,4.91
2018-11-21T12:26:40.041Z,4.93
2018-11-21T12:27:39.907Z,4.91
2018-11-21T12:28:40.123Z,4.91
2018-11-21T12:29:42.271Z,4.93
2018-11-21T12:30:39.794Z,4.91
2018-11-21T12:31:39.828Z,4.9
2018-11-21T12:32:39.948Z,4.89
2018-11-21T12:33:40.160Z,4.89
2018-11-21T12:34:39.981Z,4.9
2018-11-21T12:35:39.865Z,4.9
2018-11-21T12:36:39.897Z,4.91
2018-11-21T12:37:39.959Z,4.91
2018-11-21T12:38:39.961Z,4.9
2018-11-21T12:39:39.888Z,4.9
2018-11-21T12:40:39.852Z,4.92
2018-11-21T12:41:39.892Z,4.9
2018-11-21T12:42:39.913Z,4.91
2018-11-21T12:43:39.887Z,4.91
2018-11-21T12:44:39.815Z,4.9
2018-11-21T12:45:39.886Z,4.9
2018-11-21T12:46:39.789Z,4.9
2018-11-21T12:47:39.862Z,4.9
2018-11-21T12:48:39.818Z,4.9
2018-11-21T12:49:39.883Z,4.9
2018-11-21T12:50:39.876Z,4.91
2018-11-21T12:51:39.792Z,4.91
2018-11-21T12:52:39.833Z,4.92
2018-11-21T12:53:39.861Z,4.91
2018-11-21T12:54:39.829Z,4.9
2018-11-21T12:55:39.856Z,4.91
2018-11-21T12:56:39.774Z,4.91
2018-11-21T12:57:39.795Z,4.91
2018-11-21T12:58:39.790Z,4.9
2018-11-21T12:59:39.782Z,4.91
2018-11-21T13:00:39.883Z,4.91
2018-11-21T13:01:39.809Z,4.91
2018-11-21T13:02:39.789Z,4.9
2018-11-21T13:03:39.863Z,4.9
2018-11-21T13:04:39.816Z,4.91
2018-11-21T13:05:39.826Z,4.91
2018-11-21T13:06:40.079Z,4.93
2018-11-21T13:07:39.824Z,4.93
2018-11-21T13:08:40.036Z,4.93
2018-11-21T13:09:39.881Z,4.93
2018-11-21T13:10:39.923Z,4.92
2018-11-21T13:11:39.815Z,4.93
2018-11-21T13:12:40.147Z,4.93
2018-11-21T13:13:39.904Z,4.92
2018-11-21T13:14:40.313Z,4.93
2018-11-21T13:15:43.892Z,4.92
2018-11-21T13:16:39.940Z,4.92
2018-11-21T13:17:40.309Z,4.92
2018-11-21T13:18:39.842Z,4.92
2018-11-21T13:19:39.803Z,4.9
2018-11-21T13:20:40.077Z,4.9
2018-11-21T13:21:39.749Z,4.92